sensor_id;sensor_type;location;lat;lon;timestamp;pressure;altitude;pressure_sealevel;temperature;humidity
57086;BME280;42964;42.910;23.792;2023-04-04T00:00:02;96323.53;;;9.69;100.00
57086;BME280;42964;42.910;23.792;2023-04-04T00:05:01;96325.16;;;9.75;100.00
57086;BME280;42964;42.910;23.792;2023-04-04T00:10:00;96314.19;;;9.62;100.00
57086;BME280;42964;42.910;23.792;2023-04-04T00:14:59;96313.59;;;9.48;100.00
57086;BME280;42964;42.910;23.792;2023-04-04T00:19:59;96303.34;;;9.42;100.00
57086;BME280;42964;42.910;23.792;2023-04-04T00:24:57;96309.19;;;9.53;100.00
57086;BME280;42964;42.910;23.792;2023-04-04T00:29:56;96300.44;;;9.59;100.00
57086;BME280;42964;42.910;23.792;2023-04-04T00:34:55;96297.81;;;9.60;100.00
57086;BME280;42964;42.910;23.792;2023-04-04T00:39:55;96281.44;;;9.60;100.00
57086;BME280;42964;42.910;23.792;2023-04-04T00:44:54;96290.84;;;9.64;100.00
57086;BME280;42964;42.910;23.792;2023-04-04T00:49:53;96280.50;;;9.62;100.00
57086;BME280;42964;42.910;23.792;2023-04-04T00:54:54;96261.56;;;9.60;100.00
57086;BME280;42964;42.910;23.792;2023-04-04T00:59:53;96274.38;;;9.68;100.00
57086;BME280;42964;42.910;23.792;2023-04-04T01:04:54;96265.88;;;9.61;100.00
57086;BME280;42964;42.910;23.792;2023-04-04T01:09:55;96144.16;;;8.79;100.00
57086;BME280;42964;42.910;23.792;2023-04-04T01:14:56;96273.75;;;9.55;100.00
57086;BME280;42964;42.910;23.792;2023-04-04T01:20:00;96277.09;;;9.60;100.00
57086;BME280;42964;42.910;23.792;2023-04-04T01:25:00;96263.38;;;9.56;100.00
57086;BME280;42964;42.910;23.792;2023-04-04T01:30:01;96231.84;;;9.38;100.00
57086;BME280;42964;42.910;23.792;2023-04-04T01:40:16;96265.03;;;9.59;100.00
57086;BME280;42964;42.910;23.792;2023-04-04T01:45:16;96259.03;;;9.57;100.00
57086;BME280;42964;42.910;23.792;2023-04-04T01:50:15;96262.44;;;9.61;100.00
57086;BME280;42964;42.910;23.792;2023-04-04T01:55:14;96265.91;;;9.58;100.00
57086;BME280;42964;42.910;23.792;2023-04-04T02:00:13;96251.28;;;9.55;100.00
57086;BME280;42964;42.910;23.792;2023-04-04T02:05:13;96240.88;;;9.59;100.00
57086;BME280;42964;42.910;23.792;2023-04-04T02:10:12;96226.59;;;9.41;100.00
57086;BME280;42964;42.910;23.792;2023-04-04T02:15:11;96236.81;;;9.47;100.00
57086;BME280;42964;42.910;23.792;2023-04-04T02:20:10;96238.59;;;9.45;100.00
57086;BME280;42964;42.910;23.792;2023-04-04T02:25:09;96241.09;;;9.48;100.00
57086;BME280;42964;42.910;23.792;2023-04-04T02:30:08;96231.75;;;9.41;100.00
57086;BME280;42964;42.910;23.792;2023-04-04T02:35:08;96223.25;;;9.35;100.00
57086;BME280;42964;42.910;23.792;2023-04-04T02:40:08;96238.53;;;9.46;100.00
57086;BME280;42964;42.910;23.792;2023-04-04T02:45:07;96245.44;;;9.47;100.00
57086;BME280;42964;42.910;23.792;2023-04-04T02:50:08;96243.81;;;9.42;100.00
57086;BME280;42964;42.910;23.792;2023-04-04T02:55:07;96256.75;;;9.42;100.00
57086;BME280;42964;42.910;23.792;2023-04-04T03:00:06;96251.47;;;9.46;100.00
57086;BME280;42964;42.910;23.792;2023-04-04T03:05:05;96239.44;;;9.44;100.00
57086;BME280;42964;42.910;23.792;2023-04-04T03:10:04;96253.22;;;9.46;100.00
57086;BME280;42964;42.910;23.792;2023-04-04T03:15:04;96264.50;;;9.43;100.00
57086;BME280;42964;42.910;23.792;2023-04-04T03:20:05;96266.16;;;9.46;100.00
57086;BME280;42964;42.910;23.792;2023-04-04T03:25:04;96269.69;;;9.42;100.00
57086;BME280;42964;42.910;23.792;2023-04-04T03:30:03;96271.41;;;9.43;100.00
57086;BME280;42964;42.910;23.792;2023-04-04T03:35:03;96274.00;;;9.43;100.00
57086;BME280;42964;42.910;23.792;2023-04-04T03:40:02;96256.66;;;9.46;100.00
57086;BME280;42964;42.910;23.792;2023-04-04T03:45:01;96250.69;;;9.44;100.00
57086;BME280;42964;42.910;23.792;2023-04-04T03:50:00;96256.81;;;9.39;100.00
57086;BME280;42964;42.910;23.792;2023-04-04T03:55:00;96260.34;;;9.34;100.00
57086;BME280;42964;42.910;23.792;2023-04-04T03:59:58;96258.56;;;9.40;100.00
57086;BME280;42964;42.910;23.792;2023-04-04T04:04:57;96263.66;;;9.43;100.00
57086;BME280;42964;42.910;23.792;2023-04-04T04:09:56;96262.75;;;9.44;100.00
57086;BME280;42964;42.910;23.792;2023-04-04T04:14:55;96259.34;;;9.42;100.00
57086;BME280;42964;42.910;23.792;2023-04-04T04:19:54;96263.63;;;9.44;100.00
57086;BME280;42964;42.910;23.792;2023-04-04T04:24:53;96284.28;;;9.47;100.00
57086;BME280;42964;42.910;23.792;2023-04-04T04:29:52;96187.91;;;8.89;100.00
57086;BME280;42964;42.910;23.792;2023-04-04T04:34:51;96295.47;;;9.48;100.00
57086;BME280;42964;42.910;23.792;2023-04-04T04:39:51;96310.03;;;9.53;100.00
57086;BME280;42964;42.910;23.792;2023-04-04T04:44:50;96300.97;;;9.32;100.00
57086;BME280;42964;42.910;23.792;2023-04-04T04:49:49;96297.88;;;9.12;100.00
57086;BME280;42964;42.910;23.792;2023-04-04T04:54:49;96305.88;;;8.98;100.00
57086;BME280;42964;42.910;23.792;2023-04-04T04:59:49;96311.97;;;8.96;100.00
57086;BME280;42964;42.910;23.792;2023-04-04T05:04:48;96288.88;;;8.85;100.00
57086;BME280;42964;42.910;23.792;2023-04-04T05:09:47;96319.44;;;9.12;100.00
57086;BME280;42964;42.910;23.792;2023-04-04T05:14:46;96330.38;;;9.25;100.00
57086;BME280;42964;42.910;23.792;2023-04-04T05:19:45;96327.66;;;9.34;100.00
57086;BME280;42964;42.910;23.792;2023-04-04T05:24:44;96332.22;;;9.20;100.00
57086;BME280;42964;42.910;23.792;2023-04-04T05:29:43;96338.38;;;9.14;100.00
57086;BME280;42964;42.910;23.792;2023-04-04T05:34:42;96339.97;;;8.72;100.00
57086;BME280;42964;42.910;23.792;2023-04-04T05:39:41;96339.88;;;8.21;100.00
57086;BME280;42964;42.910;23.792;2023-04-04T05:44:39;96354.34;;;7.69;100.00
57086;BME280;42964;42.910;23.792;2023-04-04T05:49:38;96366.09;;;7.17;100.00
57086;BME280;42964;42.910;23.792;2023-04-04T05:54:37;96348.41;;;6.74;100.00
57086;BME280;42964;42.910;23.792;2023-04-04T05:59:36;96382.81;;;6.72;100.00
57086;BME280;42964;42.910;23.792;2023-04-04T06:04:36;96385.59;;;6.43;100.00
57086;BME280;42964;42.910;23.792;2023-04-04T06:09:37;96350.56;;;6.14;100.00
57086;BME280;42964;42.910;23.792;2023-04-04T06:14:37;96373.78;;;6.11;100.00
57086;BME280;42964;42.910;23.792;2023-04-04T06:19:36;96415.94;;;5.91;100.00
57086;BME280;42964;42.910;23.792;2023-04-04T06:24:35;96419.41;;;5.76;100.00
57086;BME280;42964;42.910;23.792;2023-04-04T06:29:34;96428.00;;;5.69;100.00
57086;BME280;42964;42.910;23.792;2023-04-04T06:34:33;96433.22;;;5.52;100.00
57086;BME280;42964;42.910;23.792;2023-04-04T06:39:32;96449.47;;;5.64;100.00
57086;BME280;42964;42.910;23.792;2023-04-04T06:44:32;96456.34;;;5.62;100.00
57086;BME280;42964;42.910;23.792;2023-04-04T06:49:31;96458.06;;;5.60;100.00
57086;BME280;42964;42.910;23.792;2023-04-04T06:54:31;96464.03;;;5.69;100.00
57086;BME280;42964;42.910;23.792;2023-04-04T06:59:30;96476.88;;;5.91;100.00
57086;BME280;42964;42.910;23.792;2023-04-04T07:04:30;96491.41;;;6.06;100.00
57086;BME280;42964;42.910;23.792;2023-04-04T07:09:32;96499.97;;;6.11;100.00
57086;BME280;42964;42.910;23.792;2023-04-04T07:14:31;96467.53;;;5.61;100.00
57086;BME280;42964;42.910;23.792;2023-04-04T07:19:30;96513.75;;;5.99;100.00
57086;BME280;42964;42.910;23.792;2023-04-04T07:24:29;96525.69;;;6.26;100.00
57086;BME280;42964;42.910;23.792;2023-04-04T07:29:28;96516.34;;;5.87;100.00
57086;BME280;42964;42.910;23.792;2023-04-04T07:34:27;96320.22;;;4.53;100.00
57086;BME280;42964;42.910;23.792;2023-04-04T07:39:27;96543.81;;;5.74;100.00
57086;BME280;42964;42.910;23.792;2023-04-04T07:44:26;96545.53;;;5.78;100.00
57086;BME280;42964;42.910;23.792;2023-04-04T07:49:25;96558.41;;;5.69;100.00
57086;BME280;42964;42.910;23.792;2023-04-04T07:54:24;96546.44;;;5.51;100.00
57086;BME280;42964;42.910;23.792;2023-04-04T07:59:23;96556.75;;;5.42;100.00
57086;BME280;42964;42.910;23.792;2023-04-04T08:04:22;96555.00;;;5.59;100.00
57086;BME280;42964;42.910;23.792;2023-04-04T08:09:21;96564.44;;;5.57;100.00
57086;BME280;42964;42.910;23.792;2023-04-04T08:14:20;96570.41;;;5.85;100.00
57086;BME280;42964;42.910;23.792;2023-04-04T08:19:19;96577.25;;;6.12;100.00
57086;BME280;42964;42.910;23.792;2023-04-04T08:24:18;96591.84;;;6.06;100.00
57086;BME280;42964;42.910;23.792;2023-04-04T08:29:19;96589.25;;;6.10;100.00
57086;BME280;42964;42.910;23.792;2023-04-04T08:34:19;96602.19;;;5.89;100.00
57086;BME280;42964;42.910;23.792;2023-04-04T08:39:18;96601.28;;;6.05;100.00
57086;BME280;42964;42.910;23.792;2023-04-04T08:44:19;96601.31;;;6.01;100.00
57086;BME280;42964;42.910;23.792;2023-04-04T08:49:20;96605.56;;;6.02;100.00
57086;BME280;42964;42.910;23.792;2023-04-04T08:54:24;96590.16;;;5.80;100.00
57086;BME280;42964;42.910;23.792;2023-04-04T08:59:23;96621.03;;;6.02;100.00
57086;BME280;42964;42.910;23.792;2023-04-04T09:04:23;96624.44;;;6.07;100.00
57086;BME280;42964;42.910;23.792;2023-04-04T09:09:22;96633.03;;;6.00;100.00
57086;BME280;42964;42.910;23.792;2023-04-04T09:14:23;96638.19;;;5.81;100.00
57086;BME280;42964;42.910;23.792;2023-04-04T09:19:23;96643.38;;;5.63;100.00
57086;BME280;42964;42.910;23.792;2023-04-04T09:24:22;96645.09;;;5.73;100.00
57086;BME280;42964;42.910;23.792;2023-04-04T09:29:21;96646.78;;;5.83;100.00
57086;BME280;42964;42.910;23.792;2023-04-04T09:34:20;96652.78;;;6.11;100.00
57086;BME280;42964;42.910;23.792;2023-04-04T09:39:19;96656.19;;;6.30;100.00
57086;BME280;42964;42.910;23.792;2023-04-04T09:44:22;96627.81;;;6.39;100.00
57086;BME280;42964;42.910;23.792;2023-04-04T09:49:21;96663.00;;;6.53;100.00
57086;BME280;42964;42.910;23.792;2023-04-04T09:54:22;96667.28;;;6.66;100.00
57086;BME280;42964;42.910;23.792;2023-04-04T09:59:23;96666.44;;;6.55;100.00
57086;BME280;42964;42.910;23.792;2023-04-04T10:04:22;96679.38;;;6.24;100.00
57086;BME280;42964;42.910;23.792;2023-04-04T10:09:24;96679.38;;;6.18;100.00
57086;BME280;42964;42.910;23.792;2023-04-04T10:14:33;96681.06;;;6.39;100.00
57086;BME280;42964;42.910;23.792;2023-04-04T10:19:33;96681.06;;;6.44;100.00
57086;BME280;42964;42.910;23.792;2023-04-04T10:24:34;96694.81;;;6.30;100.00
57086;BME280;42964;42.910;23.792;2023-04-04T10:29:33;96705.09;;;6.55;100.00
57086;BME280;42964;42.910;23.792;2023-04-04T10:34:44;96698.16;;;6.78;100.00
57086;BME280;42964;42.910;23.792;2023-04-04T10:39:54;96648.41;;;6.49;100.00
57086;BME280;42964;42.910;23.792;2023-04-04T10:45:00;96656.19;;;6.38;100.00
57086;BME280;42964;42.910;23.792;2023-04-04T10:50:00;96703.31;;;6.81;99.84
57086;BME280;42964;42.910;23.792;2023-04-04T10:55:03;96692.13;;;6.79;100.00
57086;BME280;42964;42.910;23.792;2023-04-04T11:00:11;96727.38;;;6.79;100.00
57086;BME280;42964;42.910;23.792;2023-04-04T11:10:20;96723.97;;;6.69;100.00
57086;BME280;42964;42.910;23.792;2023-04-04T11:15:21;96718.00;;;6.49;97.69
57086;BME280;42964;42.910;23.792;2023-04-04T11:20:34;96736.00;;;6.67;99.85
57086;BME280;42964;42.910;23.792;2023-04-04T11:25:37;96705.16;;;6.33;99.78
57086;BME280;42964;42.910;23.792;2023-04-04T11:30:41;96744.59;;;6.65;99.28
57086;BME280;42964;42.910;23.792;2023-04-04T11:35:48;96741.13;;;6.82;98.64
57086;BME280;42964;42.910;23.792;2023-04-04T11:40:54;96739.47;;;6.60;98.95
57086;BME280;42964;42.910;23.792;2023-04-04T11:46:04;96745.50;;;6.50;99.24
57086;BME280;42964;42.910;23.792;2023-04-04T11:51:04;96749.78;;;6.48;98.62
57086;BME280;42964;42.910;23.792;2023-04-04T11:56:04;96750.69;;;6.33;98.88
57086;BME280;42964;42.910;23.792;2023-04-04T12:01:03;96722.31;;;6.27;97.81
57086;BME280;42964;42.910;23.792;2023-04-04T12:06:03;96742.91;;;6.48;99.31
57086;BME280;42964;42.910;23.792;2023-04-04T12:11:08;96755.81;;;6.11;98.40
57086;BME280;42964;42.910;23.792;2023-04-04T12:16:10;96751.50;;;6.00;97.34
57086;BME280;42964;42.910;23.792;2023-04-04T12:21:09;96753.22;;;5.99;98.78
57086;BME280;42964;42.910;23.792;2023-04-04T12:26:08;96772.97;;;6.14;100.00
57086;BME280;42964;42.910;23.792;2023-04-04T12:31:10;96766.09;;;6.08;99.13
57086;BME280;42964;42.910;23.792;2023-04-04T12:36:11;96767.00;;;6.21;100.00
57086;BME280;42964;42.910;23.792;2023-04-04T12:41:16;96752.38;;;6.20;98.83
57086;BME280;42964;42.910;23.792;2023-04-04T12:46:15;96776.41;;;6.51;100.00
57086;BME280;42964;42.910;23.792;2023-04-04T12:51:15;96757.50;;;6.60;98.73
57086;BME280;42964;42.910;23.792;2023-04-04T12:56:16;96766.97;;;6.32;96.63
57086;BME280;42964;42.910;23.792;2023-04-04T13:01:15;96784.16;;;6.39;98.06
57086;BME280;42964;42.910;23.792;2023-04-04T13:06:17;96786.72;;;6.54;99.51
57086;BME280;42964;42.910;23.792;2023-04-04T13:11:17;96795.31;;;6.58;99.07
57086;BME280;42964;42.910;23.792;2023-04-04T13:16:32;96795.31;;;6.46;96.83
57086;BME280;42964;42.910;23.792;2023-04-04T13:21:33;96798.75;;;6.46;98.44
57086;BME280;42964;42.910;23.792;2023-04-04T13:26:32;96809.94;;;6.68;97.65
57086;BME280;42964;42.910;23.792;2023-04-04T13:31:31;96815.94;;;6.46;94.86
57086;BME280;42964;42.910;23.792;2023-04-04T13:36:30;96825.38;;;6.53;97.85
57086;BME280;42964;42.910;23.792;2023-04-04T13:41:29;96827.09;;;6.34;96.79
57086;BME280;42964;42.910;23.792;2023-04-04T13:46:28;96835.69;;;6.34;96.21
57086;BME280;42964;42.910;23.792;2023-04-04T13:51:27;96838.28;;;6.40;97.32
57086;BME280;42964;42.910;23.792;2023-04-04T13:56:26;96846.88;;;6.56;96.07
57086;BME280;42964;42.910;23.792;2023-04-04T14:01:25;96849.44;;;6.44;94.32
57086;BME280;42964;42.910;23.792;2023-04-04T14:06:25;96852.03;;;6.55;97.73
57086;BME280;42964;42.910;23.792;2023-04-04T14:11:24;96856.31;;;6.74;97.62
57086;BME280;42964;42.910;23.792;2023-04-04T14:16:28;96867.47;;;6.49;95.41
57086;BME280;42964;42.910;23.792;2023-04-04T14:21:27;96872.59;;;6.27;92.44
57086;BME280;42964;42.910;23.792;2023-04-04T14:26:26;96869.94;;;5.87;94.43
57086;BME280;42964;42.910;23.792;2023-04-04T14:31:25;96891.31;;;5.63;94.96
57086;BME280;42964;42.910;23.792;2023-04-04T14:36:24;96891.22;;;5.52;95.37
57086;BME280;42964;42.910;23.792;2023-04-04T14:41:23;96896.38;;;5.49;95.67
57086;BME280;42964;42.910;23.792;2023-04-04T14:46:22;96905.59;;;5.15;96.15
57086;BME280;42964;42.910;23.792;2023-04-04T14:51:22;96910.72;;;5.10;95.38
57086;BME280;42964;42.910;23.792;2023-04-04T14:56:21;96929.34;;;4.85;97.51
57086;BME280;42964;42.910;23.792;2023-04-04T15:01:20;96898.56;;;4.92;97.26
57086;BME280;42964;42.910;23.792;2023-04-04T15:06:20;96938.06;;;4.99;95.94
57086;BME280;42964;42.910;23.792;2023-04-04T15:11:19;96930.16;;;4.76;96.76
57086;BME280;42964;42.910;23.792;2023-04-04T15:16:18;96934.41;;;4.77;96.51
57086;BME280;42964;42.910;23.792;2023-04-04T15:21:17;96944.66;;;4.69;96.40
57086;BME280;42964;42.910;23.792;2023-04-04T15:26:16;96954.13;;;4.78;96.93
57086;BME280;42964;42.910;23.792;2023-04-04T15:31:15;96964.28;;;4.63;97.11
57086;BME280;42964;42.910;23.792;2023-04-04T15:36:14;96966.50;;;4.27;97.99
57086;BME280;42964;42.910;23.792;2023-04-04T15:41:13;96987.69;;;4.13;98.86
57086;BME280;42964;42.910;23.792;2023-04-04T15:46:12;96988.59;;;4.13;98.85
57086;BME280;42964;42.910;23.792;2023-04-04T15:51:11;96998.81;;;4.08;98.56
57086;BME280;42964;42.910;23.792;2023-04-04T15:56:10;97007.25;;;4.03;97.88
57086;BME280;42964;42.910;23.792;2023-04-04T16:01:09;97022.84;;;4.15;98.56
57086;BME280;42964;42.910;23.792;2023-04-04T16:06:08;97027.91;;;4.12;97.33
57086;BME280;42964;42.910;23.792;2023-04-04T16:11:10;97038.09;;;4.04;98.67
57086;BME280;42964;42.910;23.792;2023-04-04T16:16:09;97059.31;;;3.91;98.79
57086;BME280;42964;42.910;23.792;2023-04-04T16:21:08;97054.25;;;3.96;98.75
57086;BME280;42964;42.910;23.792;2023-04-04T16:26:07;97052.88;;;3.60;99.40
57086;BME280;42964;42.910;23.792;2023-04-04T16:31:07;97053.31;;;3.91;99.47
57086;BME280;42964;42.910;23.792;2023-04-04T16:36:06;97052.53;;;3.96;98.58
57086;BME280;42964;42.910;23.792;2023-04-04T16:41:05;97060.84;;;3.78;98.28
57086;BME280;42964;42.910;23.792;2023-04-04T16:46:04;97066.94;;;3.86;98.47
57086;BME280;42964;42.910;23.792;2023-04-04T16:51:03;97063.44;;;3.81;98.66
57086;BME280;42964;42.910;23.792;2023-04-04T16:56:02;97065.91;;;3.74;97.42
57086;BME280;42964;42.910;23.792;2023-04-04T17:01:01;97065.59;;;3.54;97.25
57086;BME280;42964;42.910;23.792;2023-04-04T17:06:00;97081.72;;;3.47;97.47
57086;BME280;42964;42.910;23.792;2023-04-04T17:10:59;97094.63;;;3.51;97.57
57086;BME280;42964;42.910;23.792;2023-04-04T17:15:58;97101.63;;;3.60;97.01
57086;BME280;42964;42.910;23.792;2023-04-04T17:20:57;97092.81;;;3.44;97.15
57086;BME280;42964;42.910;23.792;2023-04-04T17:25:56;97110.88;;;3.50;98.01
57086;BME280;42964;42.910;23.792;2023-04-04T17:30:57;97119.16;;;3.35;97.25
57086;BME280;42964;42.910;23.792;2023-04-04T17:35:56;97126.16;;;3.42;97.54
57086;BME280;42964;42.910;23.792;2023-04-04T17:40:58;97143.22;;;2.95;98.81
57086;BME280;42964;42.910;23.792;2023-04-04T17:45:58;97123.13;;;2.71;100.00
57086;BME280;42964;42.910;23.792;2023-04-04T17:50:58;97129.78;;;2.63;100.00
57086;BME280;42964;42.910;23.792;2023-04-04T17:55:57;97159.19;;;2.81;99.96
57086;BME280;42964;42.910;23.792;2023-04-04T18:00:57;97169.63;;;2.91;100.00
57086;BME280;42964;42.910;23.792;2023-04-04T18:05:56;97185.53;;;2.74;100.00
57086;BME280;42964;42.910;23.792;2023-04-04T18:10:55;97183.84;;;2.75;100.00
57086;BME280;42964;42.910;23.792;2023-04-04T18:15:54;97196.47;;;2.67;100.00
57086;BME280;42964;42.910;23.792;2023-04-04T18:20:53;97193.22;;;2.74;100.00
57086;BME280;42964;42.910;23.792;2023-04-04T18:25:52;97198.56;;;2.85;100.00
57086;BME280;42964;42.910;23.792;2023-04-04T18:30:52;97197.63;;;2.81;99.60
57086;BME280;42964;42.910;23.792;2023-04-04T18:35:52;97212.22;;;2.86;99.27
57086;BME280;42964;42.910;23.792;2023-04-04T18:40:51;97219.97;;;2.87;98.92
57086;BME280;42964;42.910;23.792;2023-04-04T18:45:51;97220.16;;;2.96;99.59
57086;BME280;42964;42.910;23.792;2023-04-04T18:50:51;97219.00;;;2.82;98.70
57086;BME280;42964;42.910;23.792;2023-04-04T18:55:50;97222.09;;;2.67;98.15
57086;BME280;42964;42.910;23.792;2023-04-04T19:00:52;97232.53;;;2.75;98.01
57086;BME280;42964;42.910;23.792;2023-04-04T19:05:54;97220.97;;;2.94;98.63
57086;BME280;42964;42.910;23.792;2023-04-04T19:10:53;97220.53;;;3.15;97.55
57086;BME280;42964;42.910;23.792;2023-04-04T19:15:52;97226.47;;;3.14;96.00
57086;BME280;42964;42.910;23.792;2023-04-04T19:20:51;97225.59;;;3.13;96.23
57086;BME280;42964;42.910;23.792;2023-04-04T19:25:50;97231.81;;;3.25;97.10
57086;BME280;42964;42.910;23.792;2023-04-04T19:30:49;97232.63;;;3.22;93.93
57086;BME280;42964;42.910;23.792;2023-04-04T19:41:06;97238.50;;;3.18;94.41
57086;BME280;42964;42.910;23.792;2023-04-04T19:46:08;97211.81;;;3.07;94.72
57086;BME280;42964;42.910;23.792;2023-04-04T19:51:09;97228.53;;;3.32;94.24
57086;BME280;42964;42.910;23.792;2023-04-04T19:56:10;97245.66;;;3.34;94.95
57086;BME280;42964;42.910;23.792;2023-04-04T20:01:13;97207.25;;;3.36;95.00
57086;BME280;42964;42.910;23.792;2023-04-04T20:11:34;97224.47;;;3.44;92.85
57086;BME280;42964;42.910;23.792;2023-04-04T20:16:34;97221.00;;;3.41;92.18
57086;BME280;42964;42.910;23.792;2023-04-04T20:21:33;97218.94;;;3.21;91.15
57086;BME280;42964;42.910;23.792;2023-04-04T20:26:54;97213.38;;;3.00;90.99
57086;BME280;42964;42.910;23.792;2023-04-04T20:32:01;97212.28;;;2.87;91.04
57086;BME280;42964;42.910;23.792;2023-04-04T20:37:02;97214.97;;;2.93;90.98
57086;BME280;42964;42.910;23.792;2023-04-04T20:42:13;97224.50;;;3.00;91.22
57086;BME280;42964;42.910;23.792;2023-04-04T20:47:36;97221.50;;;3.23;93.66
57086;BME280;42964;42.910;23.792;2023-04-04T20:52:38;97227.91;;;3.43;91.24
57086;BME280;42964;42.910;23.792;2023-04-04T20:57:37;97223.53;;;3.39;92.18
57086;BME280;42964;42.910;23.792;2023-04-04T21:02:36;97220.16;;;3.40;91.93
57086;BME280;42964;42.910;23.792;2023-04-04T21:07:40;97232.41;;;3.57;92.58
57086;BME280;42964;42.910;23.792;2023-04-04T21:12:39;97224.81;;;3.63;90.92
57086;BME280;42964;42.910;23.792;2023-04-04T21:17:38;97216.38;;;3.70;91.25
57086;BME280;42964;42.910;23.792;2023-04-04T21:22:37;97220.78;;;3.77;91.59
57086;BME280;42964;42.910;23.792;2023-04-04T21:27:36;97219.19;;;3.82;91.43
57086;BME280;42964;42.910;23.792;2023-04-04T21:32:35;97213.81;;;3.70;90.44
57086;BME280;42964;42.910;23.792;2023-04-04T21:37:36;97225.91;;;3.76;88.75
57086;BME280;42964;42.910;23.792;2023-04-04T21:42:35;97231.78;;;3.69;89.12
57086;BME280;42964;42.910;23.792;2023-04-04T21:47:34;97235.28;;;3.74;89.74
57086;BME280;42964;42.910;23.792;2023-04-04T21:52:34;97231.91;;;3.76;89.05
57086;BME280;42964;42.910;23.792;2023-04-04T21:57:33;97207.69;;;3.62;89.49
57086;BME280;42964;42.910;23.792;2023-04-04T22:02:32;97241.22;;;3.73;89.64
57086;BME280;42964;42.910;23.792;2023-04-04T22:07:31;97252.38;;;3.73;89.29
57086;BME280;42964;42.910;23.792;2023-04-04T22:12:30;97248.84;;;3.68;88.20
57086;BME280;42964;42.910;23.792;2023-04-04T22:17:30;97248.03;;;3.69;89.89
57086;BME280;42964;42.910;23.792;2023-04-04T22:22:30;97237.81;;;3.72;88.65
57086;BME280;42964;42.910;23.792;2023-04-04T22:27:30;97245.41;;;3.66;89.53
57086;BME280;42964;42.910;23.792;2023-04-04T22:32:33;97246.28;;;3.67;89.75
57086;BME280;42964;42.910;23.792;2023-04-04T22:37:32;97208.56;;;3.62;89.76
57086;BME280;42964;42.910;23.792;2023-04-04T22:42:31;97220.69;;;3.71;89.12
57086;BME280;42964;42.910;23.792;2023-04-04T22:47:30;97239.75;;;3.85;89.20
57086;BME280;42964;42.910;23.792;2023-04-04T22:52:30;97234.50;;;3.79;88.94
57086;BME280;42964;42.910;23.792;2023-04-04T22:57:29;97225.75;;;3.68;89.40
57086;BME280;42964;42.910;23.792;2023-04-04T23:02:28;97229.50;;;3.85;89.86
57086;BME280;42964;42.910;23.792;2023-04-04T23:07:27;97099.91;;;3.09;89.78
57086;BME280;42964;42.910;23.792;2023-04-04T23:12:26;97229.66;;;3.95;90.20
57086;BME280;42964;42.910;23.792;2023-04-04T23:17:25;97227.03;;;3.92;89.58
57086;BME280;42964;42.910;23.792;2023-04-04T23:22:24;97238.31;;;4.01;90.57
57086;BME280;42964;42.910;23.792;2023-04-04T23:27:23;97236.75;;;4.11;90.89
57086;BME280;42964;42.910;23.792;2023-04-04T23:32:22;97235.13;;;4.16;91.71
57086;BME280;42964;42.910;23.792;2023-04-04T23:37:21;97231.78;;;4.20;90.46
57086;BME280;42964;42.910;23.792;2023-04-04T23:42:20;97236.91;;;4.20;89.31
57086;BME280;42964;42.910;23.792;2023-04-04T23:47:19;97202.34;;;4.00;89.52
57086;BME280;42964;42.910;23.792;2023-04-04T23:52:18;97230.88;;;4.18;90.97
57086;BME280;42964;42.910;23.792;2023-04-04T23:57:17;97227.56;;;4.25;90.56
